createdAt,value
2018-10-21T00:00:40.613Z,99.90
2018-10-21T00:03:08.864Z,99.90
2018-10-21T00:10:31.740Z,99.90
2018-10-21T00:12:59.948Z,99.90
2018-10-21T00:15:28.252Z,99.90
2018-10-21T00:17:57.332Z,99.90
2018-10-21T00:20:25.580Z,99.90
2018-10-21T00:22:53.773Z,99.90
2018-10-21T00:25:21.992Z,99.90
2018-10-21T00:27:50.208Z,99.90
2018-10-21T00:30:18.440Z,99.90
2018-10-21T00:32:48.466Z,99.90
2018-10-21T00:35:20.447Z,99.90
2018-10-21T00:37:48.672Z,99.90
2018-10-21T00:40:17.275Z,99.90
2018-10-21T00:42:45.483Z,99.90
2018-10-21T00:45:13.963Z,99.90
2018-10-21T00:47:42.258Z,99.90
2018-10-21T00:50:21.502Z,99.90
2018-10-21T00:52:49.712Z,99.90
2018-10-21T00:55:18.666Z,99.90
2018-10-21T00:57:46.863Z,99.90
2018-10-21T01:00:15.054Z,99.90
2018-10-21T01:02:43.704Z,99.90
2018-10-21T01:05:11.980Z,99.90
2018-10-21T01:07:40.235Z,99.90
2018-10-21T01:10:10.445Z,99.90
2018-10-21T01:12:38.662Z,99.90
2018-10-21T01:15:08.434Z,99.90
2018-10-21T01:17:36.602Z,99.90
2018-10-21T01:20:06.638Z,99.90
2018-10-21T01:22:34.855Z,99.90
2018-10-21T01:25:03.512Z,99.90
2018-10-21T01:27:31.761Z,99.90
2018-10-21T01:29:59.967Z,99.90
2018-10-21T01:32:28.257Z,99.90
2018-10-21T01:35:03.507Z,99.90
2018-10-21T01:37:32.353Z,99.90
2018-10-21T01:40:47.114Z,99.90
2018-10-21T01:43:17.634Z,99.90
2018-10-21T01:45:45.995Z,99.90
2018-10-21T01:48:15.461Z,99.90
2018-10-21T01:50:47.509Z,99.90
2018-10-21T01:53:16.561Z,99.90
2018-10-21T01:55:44.899Z,99.90
2018-10-21T01:58:13.092Z,99.90
2018-10-21T02:00:41.873Z,99.90
2018-10-21T02:03:10.147Z,99.90
2018-10-21T02:05:38.948Z,99.90
2018-10-21T02:08:07.594Z,99.90
2018-10-21T02:10:35.780Z,99.90
2018-10-21T02:13:04.026Z,99.90
2018-10-21T02:15:32.292Z,99.90
2018-10-21T02:18:00.464Z,99.90
2018-10-21T02:20:31.852Z,99.90
2018-10-21T02:23:00.082Z,99.90
2018-10-21T02:25:28.556Z,99.90
2018-10-21T02:27:57.244Z,99.90
2018-10-21T02:30:26.619Z,99.90
2018-10-21T02:32:55.356Z,99.90
2018-10-21T02:35:23.789Z,99.90
2018-10-21T02:37:52.617Z,99.90
2018-10-21T02:41:46.291Z,99.90
2018-10-21T02:44:16.816Z,99.90
2018-10-21T02:46:45.701Z,99.90
2018-10-21T02:49:14.515Z,99.90
2018-10-21T02:51:54.905Z,99.90
2018-10-21T02:54:25.789Z,99.90
2018-10-21T02:56:54.194Z,99.90
2018-10-21T02:59:22.888Z,99.90
2018-10-21T03:01:51.084Z,99.90
2018-10-21T03:04:19.407Z,99.90
2018-10-21T03:06:56.080Z,99.90
2018-10-21T03:09:25.322Z,99.90
2018-10-21T03:11:53.552Z,99.90
2018-10-21T03:14:21.757Z,99.90
2018-10-21T03:16:50.003Z,99.90
2018-10-21T03:19:18.221Z,99.90
2018-10-21T03:21:46.540Z,99.90
2018-10-21T03:24:14.764Z,99.90
2018-10-21T03:26:43.471Z,99.90
2018-10-21T03:29:11.695Z,99.90
2018-10-21T03:31:40.176Z,99.90
2018-10-21T03:34:08.489Z,99.90
2018-10-21T03:36:39.752Z,99.90
2018-10-21T03:39:09.221Z,99.90
2018-10-21T03:41:37.468Z,99.90
2018-10-21T03:44:05.719Z,99.90
2018-10-21T03:46:34.316Z,99.90
2018-10-21T03:49:02.535Z,99.90
2018-10-21T03:51:31.349Z,99.90
2018-10-21T03:53:59.571Z,99.90
2018-10-21T03:56:27.764Z,99.90
2018-10-21T03:58:55.959Z,99.90
2018-10-21T04:01:24.169Z,99.90
2018-10-21T04:03:52.580Z,99.90
2018-10-21T04:06:20.784Z,99.90
2018-10-21T04:08:48.976Z,99.90
2018-10-21T04:11:17.336Z,99.90
2018-10-21T04:13:45.519Z,99.90
2018-10-21T04:16:13.798Z,99.90
2018-10-21T04:18:41.934Z,99.90
2018-10-21T04:21:10.156Z,99.90
2018-10-21T04:23:38.459Z,99.90
2018-10-21T04:26:06.673Z,99.90
2018-10-21T04:28:34.885Z,99.90
2018-10-21T04:31:03.112Z,99.90
2018-10-21T04:33:45.575Z,99.90
2018-10-21T04:36:17.506Z,99.90
2018-10-21T04:40:01.422Z,99.90
2018-10-21T04:42:32.718Z,99.90
2018-10-21T04:45:01.682Z,99.90
2018-10-21T04:47:30.230Z,99.90
2018-10-21T04:49:58.417Z,99.90
2018-10-21T04:52:27.502Z,99.90
2018-10-21T04:54:58.941Z,99.90
2018-10-21T04:57:27.098Z,99.90
2018-10-21T04:59:55.319Z,99.90
2018-10-21T05:02:23.520Z,99.90
2018-10-21T05:04:51.708Z,99.90
2018-10-21T05:07:19.924Z,99.90
2018-10-21T05:09:48.372Z,99.90
2018-10-21T05:12:16.694Z,99.90
2018-10-21T05:14:44.897Z,99.90
2018-10-21T05:17:13.326Z,99.90
2018-10-21T05:19:41.537Z,99.90
2018-10-21T05:22:09.825Z,99.90
2018-10-21T05:24:38.032Z,99.90
2018-10-21T05:27:09.949Z,99.90
2018-10-21T05:29:38.212Z,99.90
2018-10-21T05:32:06.404Z,99.90
2018-10-21T05:34:34.608Z,99.90
2018-10-21T05:37:02.849Z,99.90
2018-10-21T05:39:31.379Z,99.90
2018-10-21T05:42:02.908Z,99.90
2018-10-21T05:44:31.188Z,99.90
2018-10-21T05:46:59.421Z,99.90
2018-10-21T05:49:28.124Z,99.90
2018-10-21T05:51:56.371Z,99.90
2018-10-21T05:54:27.884Z,99.90
2018-10-21T05:56:59.650Z,99.90
2018-10-21T05:59:27.924Z,99.90
2018-10-21T06:01:56.132Z,99.90
2018-10-21T06:04:24.322Z,99.90
2018-10-21T06:06:53.471Z,99.90
2018-10-21T06:09:21.640Z,99.90
2018-10-21T06:11:53.512Z,99.90
2018-10-21T06:14:21.688Z,99.90
2018-10-21T06:17:01.253Z,99.90
2018-10-21T06:19:35.753Z,99.90
2018-10-21T06:22:04.500Z,99.90
2018-10-21T06:24:35.581Z,99.90
2018-10-21T06:27:03.755Z,99.90
2018-10-21T06:29:32.000Z,99.90
2018-10-21T06:32:00.207Z,99.90
2018-10-21T06:34:28.429Z,99.90
2018-10-21T06:36:56.664Z,99.90
2018-10-21T06:39:24.858Z,99.90
2018-10-21T06:41:56.463Z,99.90
2018-10-21T06:44:24.681Z,99.90
2018-10-21T06:46:52.892Z,99.90
2018-10-21T06:49:21.921Z,99.90
2018-10-21T06:51:50.125Z,99.90
2018-10-21T06:54:18.363Z,99.90
2018-10-21T06:56:51.408Z,99.90
2018-10-21T06:59:19.413Z,99.90
2018-10-21T07:01:47.820Z,99.90
2018-10-21T07:04:16.157Z,99.90
2018-10-21T07:06:44.280Z,99.90
2018-10-21T07:09:12.672Z,99.90
2018-10-21T07:11:45.104Z,99.90
2018-10-21T07:14:13.312Z,99.90
2018-10-21T07:16:42.179Z,99.90
2018-10-21T07:19:10.276Z,99.90
2018-10-21T07:21:38.496Z,99.90
2018-10-21T07:24:07.188Z,99.90
2018-10-21T07:26:35.389Z,99.90
2018-10-21T07:29:03.612Z,99.90
2018-10-21T07:31:32.018Z,99.90
2018-10-21T07:34:00.430Z,99.90
2018-10-21T07:36:28.651Z,99.90
2018-10-21T07:38:56.799Z,99.90
2018-10-21T07:41:25.002Z,99.90
2018-10-21T07:43:53.209Z,99.90
2018-10-21T07:46:21.533Z,99.90
2018-10-21T07:48:50.049Z,99.90
2018-10-21T07:51:18.242Z,99.90
2018-10-21T07:53:46.415Z,99.90
2018-10-21T07:56:21.688Z,99.90
2018-10-21T07:58:49.928Z,99.90
2018-10-21T08:01:18.182Z,99.90
2018-10-21T08:03:47.012Z,99.90
2018-10-21T08:06:32.141Z,99.90
2018-10-21T08:09:00.500Z,99.90
2018-10-21T08:11:34.260Z,99.90
2018-10-21T08:14:02.827Z,99.90
2018-10-21T08:16:31.054Z,99.90
2018-10-21T08:18:59.260Z,99.90
2018-10-21T08:21:27.504Z,99.90
2018-10-21T08:23:55.694Z,99.90
2018-10-21T08:26:34.223Z,99.90
2018-10-21T08:29:02.712Z,99.90
2018-10-21T08:31:31.589Z,99.90
2018-10-21T08:34:00.030Z,99.90
2018-10-21T08:36:28.224Z,99.90
2018-10-21T08:38:56.575Z,99.90
2018-10-21T08:41:24.749Z,99.90
2018-10-21T08:43:53.016Z,99.90
2018-10-21T08:46:22.244Z,99.90
2018-10-21T08:48:50.349Z,99.90
2018-10-21T08:51:18.524Z,99.90
2018-10-21T08:53:46.823Z,99.90
2018-10-21T08:56:15.948Z,99.90
2018-10-21T08:58:44.196Z,99.90
2018-10-21T09:01:12.508Z,99.90
2018-10-21T09:03:41.003Z,99.90
2018-10-21T09:06:09.303Z,99.90
2018-10-21T09:08:37.495Z,99.90
2018-10-21T09:11:05.802Z,99.90
2018-10-21T09:13:34.031Z,99.90
2018-10-21T09:16:02.285Z,99.90
2018-10-21T09:18:30.648Z,99.90
2018-10-21T09:20:58.883Z,99.90
2018-10-21T09:23:27.172Z,99.90
2018-10-21T09:25:55.374Z,99.90
2018-10-21T09:28:23.591Z,99.90
2018-10-21T09:30:51.780Z,99.90
2018-10-21T09:33:20.279Z,99.90
2018-10-21T09:35:48.470Z,99.90
2018-10-21T09:38:16.734Z,99.90
2018-10-21T09:40:44.932Z,99.90
2018-10-21T09:43:17.838Z,99.90
2018-10-21T09:45:46.013Z,99.90
2018-10-21T09:48:14.217Z,99.90
2018-10-21T09:50:42.440Z,99.90
2018-10-21T09:53:10.700Z,99.90
2018-10-21T09:55:39.784Z,99.90
2018-10-21T09:58:11.400Z,99.90
2018-10-21T10:00:45.582Z,99.90
2018-10-21T10:03:14.028Z,99.90
2018-10-21T10:05:42.205Z,99.90
2018-10-21T10:08:11.404Z,99.90
2018-10-21T10:10:39.739Z,99.90
2018-10-21T10:13:11.819Z,99.90
2018-10-21T10:15:40.005Z,99.90
2018-10-21T10:18:08.277Z,99.90
2018-10-21T10:20:36.469Z,99.90
2018-10-21T10:23:05.072Z,99.90
2018-10-21T10:25:33.264Z,99.90
2018-10-21T10:28:01.503Z,99.90
2018-10-21T10:30:29.830Z,99.90
2018-10-21T10:32:57.944Z,99.90
2018-10-21T10:35:26.158Z,99.90
2018-10-21T10:37:55.367Z,99.90
2018-10-21T10:40:23.638Z,99.90
2018-10-21T10:42:51.961Z,99.90
2018-10-21T10:45:20.644Z,99.90
2018-10-21T10:47:48.868Z,99.90
2018-10-21T10:50:17.100Z,99.90
2018-10-21T10:52:45.337Z,99.90
2018-10-21T10:55:13.644Z,99.90
2018-10-21T10:57:41.972Z,99.90
2018-10-21T11:00:11.641Z,99.90
2018-10-21T11:02:40.164Z,99.90
2018-10-21T11:05:09.089Z,99.90
2018-10-21T11:07:37.461Z,99.90
2018-10-21T11:10:07.141Z,99.90
2018-10-21T11:12:35.373Z,99.90
2018-10-21T11:15:03.696Z,99.90
2018-10-21T11:17:31.903Z,99.90
2018-10-21T11:20:00.093Z,99.90
2018-10-21T11:22:28.443Z,99.90
2018-10-21T11:24:56.563Z,99.90
2018-10-21T11:27:24.799Z,99.90
2018-10-21T11:30:00.093Z,99.90
2018-10-21T11:32:32.768Z,99.90
2018-10-21T11:35:01.504Z,99.90
2018-10-21T11:37:29.931Z,99.90
2018-10-21T11:40:05.022Z,99.90
2018-10-21T11:42:33.239Z,99.90
2018-10-21T11:45:02.510Z,99.90
2018-10-21T11:47:35.019Z,99.90
2018-10-21T11:50:03.380Z,99.90
2018-10-21T11:52:31.671Z,99.90
2018-10-21T11:54:59.824Z,99.90
2018-10-21T11:57:28.026Z,99.90
2018-10-21T12:00:00.697Z,99.90
2018-10-21T12:02:28.932Z,99.90
2018-10-21T12:04:57.153Z,99.90
2018-10-21T12:07:25.400Z,99.90
2018-10-21T12:09:53.668Z,99.90
2018-10-21T12:12:22.705Z,99.90
2018-10-21T12:14:50.895Z,99.90
2018-10-21T12:17:22.200Z,99.90
2018-10-21T12:19:50.498Z,99.90
2018-10-21T12:22:18.779Z,99.90
2018-10-21T12:24:46.997Z,99.90
2018-10-21T12:27:15.316Z,99.90
2018-10-21T12:29:43.554Z,99.90
2018-10-21T12:32:16.180Z,99.90
2018-10-21T12:34:44.459Z,99.90
2018-10-21T12:37:13.469Z,99.90
2018-10-21T12:39:41.676Z,99.90
2018-10-21T12:42:09.886Z,99.90
2018-10-21T12:44:38.257Z,99.90
2018-10-21T12:47:14.592Z,99.90
2018-10-21T12:49:42.717Z,99.90
2018-10-21T12:52:11.061Z,98.80
2018-10-21T12:54:43.368Z,98.70
2018-10-21T12:57:11.584Z,97.40
2018-10-21T12:59:39.778Z,98.50
2018-10-21T13:02:11.313Z,98.80
2018-10-21T13:04:40.226Z,99.30
2018-10-21T13:07:08.588Z,99.10
2018-10-21T13:09:36.808Z,99.50
2018-10-21T13:12:05.283Z,99.90
2018-10-21T13:14:33.498Z,99.90
2018-10-21T13:17:01.692Z,99.90
2018-10-21T13:19:29.892Z,99.90
2018-10-21T13:21:58.196Z,99.90
2018-10-21T13:24:26.355Z,99.90
2018-10-21T13:26:54.568Z,99.90
2018-10-21T13:29:22.875Z,99.90
2018-10-21T13:31:51.071Z,99.90
2018-10-21T13:34:19.302Z,99.90
2018-10-21T13:36:47.573Z,99.90
2018-10-21T13:39:15.752Z,99.90
2018-10-21T13:41:45.048Z,99.90
2018-10-21T13:44:14.133Z,99.90
2018-10-21T13:46:42.599Z,99.90
2018-10-21T13:49:11.144Z,99.90
2018-10-21T13:51:39.293Z,99.90
2018-10-21T13:54:07.480Z,99.90
2018-10-21T13:56:35.719Z,99.90
2018-10-21T13:59:04.077Z,99.90
2018-10-21T14:01:32.318Z,99.60
2018-10-21T14:04:00.484Z,99.90
2018-10-21T14:06:28.729Z,99.90
2018-10-21T14:08:56.982Z,99.80
2018-10-21T14:11:25.209Z,99.90
2018-10-21T14:13:53.433Z,99.70
2018-10-21T14:16:21.845Z,99.60
2018-10-21T14:18:50.411Z,99.70
2018-10-21T14:21:18.900Z,99.20
2018-10-21T14:23:48.879Z,99.30
2018-10-21T14:26:18.201Z,99.30
2018-10-21T14:28:46.435Z,99.30
2018-10-21T14:31:14.671Z,99.40
2018-10-21T14:33:43.147Z,99.30
2018-10-21T14:36:11.801Z,99.90
2018-10-21T14:38:39.974Z,99.60
2018-10-21T14:41:08.171Z,99.90
2018-10-21T14:43:36.488Z,99.00
2018-10-21T14:46:05.069Z,98.60
2018-10-21T14:48:37.392Z,98.70
2018-10-21T14:51:05.648Z,98.70
2018-10-21T14:53:34.012Z,98.40
2018-10-21T14:56:03.210Z,98.70
2018-10-21T14:58:31.411Z,98.20
2018-10-21T15:00:59.625Z,98.20
2018-10-21T15:03:31.553Z,97.70
2018-10-21T15:05:59.736Z,97.70
2018-10-21T15:08:27.919Z,97.90
2018-10-21T15:10:56.153Z,97.90
2018-10-21T15:13:24.299Z,97.60
2018-10-21T15:15:53.036Z,97.50
2018-10-21T15:18:21.243Z,97.70
2018-10-21T15:20:49.435Z,97.70
2018-10-21T15:23:17.642Z,97.80
2018-10-21T15:25:45.948Z,98.00
2018-10-21T15:28:14.225Z,98.10
2018-10-21T15:30:42.437Z,98.20
2018-10-21T15:33:10.685Z,98.60
2018-10-21T15:35:38.888Z,98.90
2018-10-21T15:38:07.082Z,98.60
2018-10-21T15:40:35.256Z,98.30
2018-10-21T15:43:03.486Z,98.60
2018-10-21T15:45:32.152Z,98.80
2018-10-21T15:48:00.369Z,99.90
2018-10-21T15:50:28.612Z,99.80
2018-10-21T15:52:56.815Z,99.90
2018-10-21T15:55:25.084Z,99.90
2018-10-21T15:57:53.300Z,99.90
2018-10-21T16:00:21.509Z,99.90
2018-10-21T16:02:49.761Z,99.90
2018-10-21T16:05:17.957Z,99.90
2018-10-21T16:07:46.171Z,99.90
2018-10-21T16:10:14.409Z,99.90
2018-10-21T16:12:42.660Z,99.90
2018-10-21T16:15:13.327Z,99.90
2018-10-21T16:17:41.667Z,99.90
2018-10-21T16:20:09.918Z,99.90
2018-10-21T16:22:39.553Z,99.90
2018-10-21T16:25:09.256Z,99.90
2018-10-21T16:27:37.555Z,99.90
2018-10-21T16:30:08.236Z,99.90
2018-10-21T16:32:36.864Z,99.90
2018-10-21T16:35:05.566Z,99.90
2018-10-21T16:37:36.909Z,99.90
2018-10-21T16:40:06.337Z,99.90
2018-10-21T16:42:34.509Z,99.90
2018-10-21T16:45:02.934Z,99.90
2018-10-21T16:47:31.717Z,99.90
2018-10-21T16:50:03.818Z,99.90
2018-10-21T16:52:32.141Z,99.90
2018-10-21T16:55:00.401Z,99.90
2018-10-21T16:57:28.590Z,99.90
2018-10-21T16:59:57.258Z,99.90
2018-10-21T17:02:25.463Z,99.90
2018-10-21T17:04:57.422Z,99.90
2018-10-21T17:07:25.626Z,99.90
2018-10-21T17:09:54.199Z,99.90
2018-10-21T17:12:22.079Z,99.90
2018-10-21T17:14:50.343Z,99.90
2018-10-21T17:17:18.958Z,99.90
2018-10-21T17:19:47.316Z,99.90
2018-10-21T17:22:15.533Z,99.90
2018-10-21T17:24:43.873Z,99.90
2018-10-21T17:27:12.225Z,99.90
2018-10-21T17:29:40.409Z,99.90
2018-10-21T17:32:08.667Z,99.90
2018-10-21T17:34:36.858Z,99.90
2018-10-21T17:37:05.223Z,99.90
2018-10-21T17:39:33.387Z,99.90
2018-10-21T17:42:01.563Z,99.90
2018-10-21T17:44:29.721Z,99.90
2018-10-21T17:46:57.879Z,99.90
2018-10-21T17:49:26.114Z,99.90
2018-10-21T17:51:57.229Z,99.90
2018-10-21T17:54:25.448Z,99.90
2018-10-21T17:56:59.628Z,99.90
2018-10-21T17:59:28.412Z,99.90
2018-10-21T18:01:57.844Z,99.90
2018-10-21T18:04:26.900Z,99.90
2018-10-21T18:06:55.310Z,99.90
2018-10-21T18:09:23.456Z,99.90
2018-10-21T18:11:52.122Z,99.90
2018-10-21T18:14:20.320Z,99.90
2018-10-21T18:16:48.653Z,99.90
2018-10-21T18:19:17.108Z,99.90
2018-10-21T18:21:45.287Z,99.90
2018-10-21T18:24:13.536Z,99.90
2018-10-21T18:26:41.778Z,99.90
2018-10-21T18:29:09.973Z,99.90
2018-10-21T18:31:38.223Z,99.90
2018-10-21T18:34:06.590Z,99.90
2018-10-21T18:36:34.761Z,99.90
2018-10-21T18:39:03.399Z,99.90
2018-10-21T18:41:31.615Z,99.90
2018-10-21T18:43:59.907Z,99.90
2018-10-21T18:46:28.141Z,99.90
2018-10-21T18:48:56.477Z,99.90
2018-10-21T18:51:24.713Z,99.90
2018-10-21T18:53:57.212Z,99.90
2018-10-21T18:56:25.425Z,99.90
2018-10-21T18:58:53.634Z,99.90
2018-10-21T19:01:21.894Z,99.90
2018-10-21T19:03:51.040Z,99.90
2018-10-21T19:06:19.204Z,99.90
2018-10-21T19:08:50.918Z,99.90
2018-10-21T19:11:19.172Z,99.90
2018-10-21T19:13:47.424Z,99.90
2018-10-21T19:16:16.327Z,99.90
2018-10-21T19:18:44.512Z,99.90
2018-10-21T19:21:12.779Z,99.90
2018-10-21T19:23:48.635Z,99.90
2018-10-21T19:26:17.248Z,99.90
2018-10-21T19:28:45.452Z,99.90
2018-10-21T19:31:13.649Z,99.90
2018-10-21T19:33:41.847Z,99.90
2018-10-21T19:36:10.023Z,99.90
2018-10-21T19:38:41.575Z,99.90
2018-10-21T19:41:09.789Z,99.90
2018-10-21T19:43:38.053Z,99.90
2018-10-21T19:46:06.382Z,99.90
2018-10-21T19:48:34.557Z,99.90
2018-10-21T19:51:03.124Z,99.90
2018-10-21T19:53:34.985Z,99.90
2018-10-21T19:56:03.191Z,99.90
2018-10-21T19:58:32.142Z,99.90
2018-10-21T20:01:00.352Z,99.90
2018-10-21T20:03:28.520Z,99.90
2018-10-21T20:05:57.000Z,99.90
2018-10-21T20:08:32.528Z,99.90
2018-10-21T20:11:00.744Z,99.90
2018-10-21T20:13:28.963Z,99.90
2018-10-21T20:15:58.101Z,99.90
2018-10-21T20:18:26.335Z,99.90
2018-10-21T20:20:54.581Z,99.90
2018-10-21T20:23:26.980Z,99.90
2018-10-21T20:25:56.184Z,99.90
2018-10-21T20:28:24.457Z,99.90
2018-10-21T20:30:53.463Z,99.90
2018-10-21T20:33:21.583Z,99.90
2018-10-21T20:35:49.800Z,99.90
2018-10-21T20:38:18.139Z,99.90
2018-10-21T20:40:47.088Z,99.90
2018-10-21T20:43:15.679Z,99.90
2018-10-21T20:45:43.932Z,99.90
2018-10-21T20:48:12.912Z,99.90
2018-10-21T20:50:41.042Z,99.90
2018-10-21T20:53:09.223Z,99.90
2018-10-21T20:55:37.780Z,99.90
2018-10-21T20:58:05.954Z,99.90
2018-10-21T21:00:34.236Z,99.90
2018-10-21T21:03:02.426Z,99.90
2018-10-21T21:05:30.598Z,99.90
2018-10-21T21:07:58.768Z,99.90
2018-10-21T21:10:27.135Z,99.90
2018-10-21T21:12:55.671Z,99.90
2018-10-21T21:15:24.076Z,99.90
2018-10-21T21:17:52.260Z,99.90
2018-10-21T21:20:20.511Z,99.90
2018-10-21T21:22:48.689Z,99.90
2018-10-21T21:25:16.911Z,99.90
2018-10-21T21:27:45.104Z,99.90
2018-10-21T21:30:13.400Z,99.90
2018-10-21T21:32:41.544Z,99.90
2018-10-21T21:35:09.813Z,99.90
2018-10-21T21:37:38.452Z,99.90
2018-10-21T21:40:11.893Z,99.90
2018-10-21T21:42:40.356Z,99.90
2018-10-21T21:45:09.383Z,99.90
2018-10-21T21:47:37.620Z,99.90
2018-10-21T21:50:07.231Z,99.90
2018-10-21T21:52:35.422Z,99.90
2018-10-21T21:55:03.616Z,99.90
2018-10-21T21:57:31.873Z,99.90
2018-10-21T22:00:00.071Z,99.90
2018-10-21T22:02:28.314Z,99.90
2018-10-21T22:04:56.919Z,99.90
2018-10-21T22:07:25.124Z,99.90
2018-10-21T22:09:53.374Z,99.90
2018-10-21T22:12:21.724Z,99.90
2018-10-21T22:14:49.826Z,99.90
2018-10-21T22:17:18.052Z,99.90
2018-10-21T22:19:46.256Z,99.90
2018-10-21T22:22:14.587Z,99.90
2018-10-21T22:24:42.727Z,99.90
2018-10-21T22:27:15.120Z,99.90
2018-10-21T22:29:43.291Z,99.90
2018-10-21T22:32:11.572Z,99.90
2018-10-21T22:34:39.990Z,99.90
2018-10-21T22:37:08.199Z,99.90
2018-10-21T22:39:36.386Z,99.90
2018-10-21T22:42:04.653Z,99.90
2018-10-21T22:44:32.847Z,99.90
2018-10-21T22:47:01.071Z,99.90
2018-10-21T22:49:29.253Z,99.90
2018-10-21T22:51:57.463Z,99.90
2018-10-21T22:54:25.686Z,99.90
2018-10-21T22:56:57.836Z,99.90
2018-10-21T22:59:26.005Z,99.90
2018-10-21T23:01:54.301Z,99.90
2018-10-21T23:04:22.521Z,99.90
2018-10-21T23:06:50.712Z,99.90
2018-10-21T23:09:18.892Z,99.90
2018-10-21T23:11:51.073Z,99.90
2018-10-21T23:19:22.943Z,99.90
2018-10-21T23:21:51.688Z,99.90
2018-10-21T23:24:20.056Z,99.90
2018-10-21T23:26:55.595Z,99.90
2018-10-21T23:29:23.776Z,99.90
2018-10-21T23:31:52.273Z,99.90
2018-10-21T23:34:20.487Z,99.90
2018-10-21T23:36:48.675Z,99.90
2018-10-21T23:39:16.837Z,99.90
2018-10-21T23:41:48.517Z,99.90
2018-10-21T23:44:17.144Z,99.90
2018-10-21T23:46:45.365Z,99.90
2018-10-21T23:49:13.763Z,99.90
2018-10-21T23:51:42.098Z,99.90
2018-10-21T23:54:10.530Z,99.90
2018-10-21T23:56:38.792Z,99.90
2018-10-21T23:59:10.441Z,99.90
